createdAt,value
2023-05-06T00:00:25.952Z,2.53
2023-05-06T00:02:53.520Z,2.35
2023-05-06T00:05:20.894Z,2.30
2023-05-06T00:07:48.183Z,1.90
2023-05-06T00:10:15.927Z,2.33
2023-05-06T00:12:43.537Z,3.05
2023-05-06T00:15:11.812Z,2.25
2023-05-06T00:17:39.326Z,2.33
2023-05-06T00:20:07.901Z,2.83
2023-05-06T00:22:35.176Z,2.53
2023-05-06T00:25:02.878Z,2.53
2023-05-06T00:27:30.157Z,2.28
2023-05-06T00:29:58.201Z,2.47
2023-05-06T00:32:25.547Z,2.20
2023-05-06T00:34:52.800Z,2.20
2023-05-06T00:37:20.033Z,1.90
2023-05-06T00:39:47.304Z,2.65
2023-05-06T00:42:14.488Z,2.13
2023-05-06T00:44:41.779Z,2.40
2023-05-06T00:47:09.419Z,2.30
2023-05-06T00:49:36.629Z,2.40
2023-05-06T00:52:04.564Z,2.58
2023-05-06T00:54:32.024Z,2.45
2023-05-06T00:56:59.489Z,2.67
2023-05-06T00:59:27.058Z,2.45
2023-05-06T01:01:54.564Z,3.05
2023-05-06T01:04:24.108Z,2.88
2023-05-06T01:07:19.301Z,2.53
2023-05-06T01:10:06.701Z,2.40
2023-05-06T01:12:44.083Z,3.05
2023-05-06T01:15:44.846Z,2.90
2023-05-06T01:20:51.025Z,2.42
2023-05-06T01:23:19.145Z,2.90
2023-05-06T01:25:46.465Z,2.10
2023-05-06T01:28:14.197Z,3.00
2023-05-06T01:30:58.022Z,2.70
2023-05-06T01:33:48.192Z,2.40
2023-05-06T01:37:25.965Z,2.50
2023-05-06T01:39:57.920Z,2.60
2023-05-06T01:42:27.554Z,2.58
2023-05-06T01:44:57.311Z,2.47
2023-05-06T01:47:25.621Z,2.77
2023-05-06T01:49:53.148Z,2.40
2023-05-06T01:52:22.327Z,2.17
2023-05-06T01:54:50.328Z,2.30
2023-05-06T01:57:17.609Z,2.13
2023-05-06T01:59:45.315Z,2.03
2023-05-06T02:02:12.617Z,3.08
2023-05-06T02:04:39.848Z,2.72
2023-05-06T02:07:07.351Z,2.30
2023-05-06T02:09:34.702Z,2.50
2023-05-06T02:12:03.557Z,2.45
2023-05-06T02:14:30.815Z,2.88
2023-05-06T02:17:05.047Z,2.83
2023-05-06T02:19:32.561Z,2.30
2023-05-06T02:21:59.824Z,2.30
2023-05-06T02:24:27.173Z,2.30
2023-05-06T02:26:54.558Z,2.40
2023-05-06T02:29:21.966Z,2.60
2023-05-06T02:31:49.249Z,2.42
2023-05-06T02:34:17.373Z,2.30
2023-05-06T02:36:44.657Z,2.72
2023-05-06T02:39:12.000Z,2.47
2023-05-06T02:41:39.573Z,2.92
2023-05-06T02:44:06.873Z,3.10
2023-05-06T02:46:34.762Z,2.50
2023-05-06T02:49:02.293Z,2.10
2023-05-06T02:51:31.131Z,2.70
2023-05-06T02:53:58.446Z,2.70
2023-05-06T02:56:25.988Z,2.20
2023-05-06T02:58:53.846Z,2.55
2023-05-06T03:01:21.321Z,2.42
2023-05-06T03:03:48.611Z,2.47
2023-05-06T03:06:15.871Z,3.30
2023-05-06T03:08:43.119Z,2.20
2023-05-06T03:11:10.331Z,2.78
2023-05-06T03:13:37.789Z,3.00
2023-05-06T03:16:05.634Z,2.90
2023-05-06T03:18:33.035Z,2.85
2023-05-06T03:21:00.646Z,3.08
2023-05-06T03:23:28.583Z,2.85
2023-05-06T03:25:55.888Z,2.83
2023-05-06T03:28:23.430Z,2.45
2023-05-06T03:30:50.952Z,2.58
2023-05-06T03:33:18.368Z,2.47
2023-05-06T03:35:45.657Z,2.70
2023-05-06T03:38:12.854Z,2.60
2023-05-06T03:40:50.697Z,2.17
2023-05-06T03:43:18.042Z,2.75
2023-05-06T03:45:48.265Z,2.67
2023-05-06T03:48:15.671Z,2.80
2023-05-06T03:50:44.400Z,2.90
2023-05-06T03:53:13.267Z,2.40
2023-05-06T03:55:43.019Z,3.10
2023-05-06T03:58:12.447Z,2.70
2023-05-06T04:00:41.669Z,3.65
2023-05-06T04:03:08.968Z,3.08
2023-05-06T04:05:42.790Z,3.10
2023-05-06T04:08:12.445Z,3.40
2023-05-06T04:10:41.135Z,3.58
2023-05-06T04:13:15.992Z,3.10
2023-05-06T04:15:44.829Z,3.55
2023-05-06T04:18:19.362Z,3.22
2023-05-06T04:20:55.617Z,3.05
2023-05-06T04:23:23.232Z,2.50
2023-05-06T04:25:50.800Z,2.42
2023-05-06T04:28:21.915Z,3.17
2023-05-06T04:30:51.771Z,2.85
2023-05-06T04:33:22.390Z,2.83
2023-05-06T04:35:56.704Z,2.92
2023-05-06T04:38:30.331Z,2.45
2023-05-06T04:40:57.793Z,2.67
2023-05-06T04:43:27.759Z,2.70
2023-05-06T04:46:01.785Z,2.80
2023-05-06T04:48:32.772Z,2.45
2023-05-06T04:51:01.695Z,2.78
2023-05-06T04:53:30.199Z,2.78
2023-05-06T04:55:57.762Z,2.97
2023-05-06T04:58:25.149Z,2.35
2023-05-06T05:00:52.684Z,2.75
2023-05-06T05:03:20.138Z,2.70
2023-05-06T05:05:47.751Z,3.22
2023-05-06T05:08:18.981Z,2.22
2023-05-06T05:10:46.384Z,2.50
2023-05-06T05:13:19.389Z,2.40
2023-05-06T05:15:46.844Z,2.10
2023-05-06T05:18:15.710Z,2.40
2023-05-06T05:20:44.776Z,2.78
2023-05-06T05:23:14.187Z,2.30
2023-05-06T05:25:44.465Z,2.22
2023-05-06T05:28:12.467Z,2.30
2023-05-06T05:30:40.291Z,2.10
2023-05-06T05:33:09.263Z,2.30
2023-05-06T05:35:37.703Z,2.22
2023-05-06T05:38:05.078Z,2.38
2023-05-06T05:40:32.512Z,2.63
2023-05-06T05:42:59.736Z,2.30
2023-05-06T05:45:33.141Z,2.47
2023-05-06T05:48:00.746Z,2.67
2023-05-06T05:50:28.022Z,2.60
2023-05-06T05:52:57.197Z,3.03
2023-05-06T05:55:25.628Z,2.25
2023-05-06T05:57:52.824Z,2.75
2023-05-06T06:00:21.796Z,2.40
2023-05-06T06:02:52.833Z,2.72
2023-05-06T06:05:21.532Z,2.50
2023-05-06T06:07:48.912Z,2.20
2023-05-06T06:10:16.723Z,2.42
2023-05-06T06:12:44.991Z,2.92
2023-05-06T06:15:15.925Z,2.55
2023-05-06T06:17:45.407Z,2.70
2023-05-06T06:20:13.418Z,2.78
2023-05-06T06:22:41.113Z,2.58
2023-05-06T06:25:09.397Z,3.15
2023-05-06T06:27:37.289Z,2.97
2023-05-06T06:30:07.137Z,2.80
2023-05-06T06:32:34.525Z,3.53
2023-05-06T06:35:01.864Z,2.90
2023-05-06T06:37:29.283Z,2.53
2023-05-06T06:39:56.530Z,2.97
2023-05-06T06:42:23.802Z,2.67
2023-05-06T06:45:08.658Z,3.15
2023-05-06T06:50:03.702Z,3.10
2023-05-06T06:52:30.987Z,3.00
2023-05-06T06:54:58.361Z,2.38
2023-05-06T06:57:25.925Z,3.20
2023-05-06T06:59:53.883Z,2.30
2023-05-06T07:02:22.329Z,2.83
2023-05-06T07:04:49.797Z,2.75
2023-05-06T07:07:17.022Z,2.33
2023-05-06T07:09:44.563Z,2.75
2023-05-06T07:12:12.322Z,2.90
2023-05-06T07:14:39.655Z,2.33
2023-05-06T07:17:06.945Z,2.53
2023-05-06T07:19:34.177Z,2.85
2023-05-06T07:22:03.172Z,2.80
2023-05-06T07:24:30.426Z,3.33
2023-05-06T07:26:57.848Z,3.30
2023-05-06T07:29:25.117Z,3.47
2023-05-06T07:31:52.395Z,4.28
2023-05-06T07:34:20.170Z,3.58
2023-05-06T07:36:47.390Z,3.75
2023-05-06T07:39:15.030Z,3.22
2023-05-06T07:41:42.220Z,3.25
2023-05-06T07:44:09.467Z,3.20
2023-05-06T07:46:36.940Z,3.58
2023-05-06T07:49:04.330Z,3.35
2023-05-06T07:51:31.959Z,3.00
2023-05-06T07:53:59.202Z,3.13
2023-05-06T07:56:26.434Z,2.90
2023-05-06T07:58:54.121Z,3.03
2023-05-06T08:01:21.380Z,3.00
2023-05-06T08:03:49.127Z,3.45
2023-05-06T08:06:16.726Z,2.97
2023-05-06T08:08:43.950Z,2.97
2023-05-06T08:11:11.369Z,2.90
2023-05-06T08:13:38.649Z,3.10
2023-05-06T08:16:07.126Z,2.78
2023-05-06T08:18:34.502Z,2.65
2023-05-06T08:21:01.868Z,2.92
2023-05-06T08:23:29.080Z,2.88
2023-05-06T08:25:56.353Z,2.78
2023-05-06T08:28:24.643Z,3.50
2023-05-06T08:30:52.647Z,2.60
2023-05-06T08:33:20.146Z,2.65
2023-05-06T08:35:47.923Z,2.70
2023-05-06T08:38:15.176Z,2.70
2023-05-06T08:40:44.591Z,2.67
2023-05-06T08:43:17.478Z,2.60
2023-05-06T08:45:44.883Z,3.42
2023-05-06T08:48:12.495Z,3.05
2023-05-06T08:50:43.468Z,3.20
2023-05-06T08:53:16.055Z,2.90
2023-05-06T08:55:44.380Z,3.40
2023-05-06T08:58:15.969Z,3.05
2023-05-06T09:00:44.426Z,4.00
2023-05-06T09:03:11.770Z,4.00
2023-05-06T09:05:39.235Z,3.63
2023-05-06T09:08:06.553Z,4.30
2023-05-06T09:10:44.905Z,4.00
2023-05-06T09:13:19.094Z,3.88
2023-05-06T09:15:48.903Z,4.63
2023-05-06T09:18:16.900Z,4.30
2023-05-06T09:20:49.420Z,4.60
2023-05-06T09:23:18.472Z,5.00
2023-05-06T09:25:47.828Z,5.75
2023-05-06T09:28:15.602Z,4.78
2023-05-06T09:30:46.345Z,4.88
2023-05-06T09:33:14.188Z,5.28
2023-05-06T09:35:43.899Z,4.50
2023-05-06T09:38:11.782Z,5.95
2023-05-06T09:40:39.609Z,6.03
2023-05-06T09:43:07.882Z,6.40
2023-05-06T09:45:36.415Z,6.18
2023-05-06T09:48:04.353Z,6.20
2023-05-06T09:50:33.571Z,6.68
2023-05-06T09:53:03.763Z,6.88
2023-05-06T09:55:31.332Z,7.00
2023-05-06T09:58:00.586Z,7.00
2023-05-06T10:00:30.001Z,7.15
2023-05-06T10:02:59.089Z,6.70
2023-05-06T10:05:29.097Z,4.68
2023-05-06T10:07:58.351Z,6.60
2023-05-06T10:10:28.538Z,5.90
2023-05-06T10:12:56.603Z,5.00
2023-05-06T10:15:26.476Z,5.72
2023-05-06T10:17:55.385Z,4.18
2023-05-06T10:20:26.618Z,3.22
2023-05-06T10:23:15.133Z,2.63
2023-05-06T10:25:44.980Z,2.53
2023-05-06T10:28:17.101Z,2.22
2023-05-06T10:30:58.348Z,2.40
2023-05-06T10:33:27.592Z,2.40
2023-05-06T10:36:18.396Z,2.38
2023-05-06T10:38:57.205Z,1.90
2023-05-06T10:41:28.101Z,2.60
2023-05-06T10:43:57.180Z,1.63
2023-05-06T10:46:26.986Z,1.92
2023-05-06T10:49:06.790Z,2.13
2023-05-06T10:51:38.786Z,2.47
2023-05-06T10:54:08.310Z,2.75
2023-05-06T10:57:09.173Z,2.10
2023-05-06T10:59:37.187Z,2.10
2023-05-06T11:02:07.951Z,2.00
2023-05-06T11:04:35.807Z,2.00
2023-05-06T11:07:15.546Z,1.77
2023-05-06T11:10:08.272Z,1.52
2023-05-06T11:12:49.903Z,1.70
2023-05-06T11:15:39.515Z,1.67
2023-05-06T11:18:37.550Z,2.40
2023-05-06T11:21:08.259Z,1.88
2023-05-06T11:23:52.294Z,2.30
2023-05-06T11:26:21.437Z,2.33
2023-05-06T11:28:51.622Z,2.10
2023-05-06T11:31:22.343Z,2.60
2023-05-06T11:33:53.252Z,2.30
2023-05-06T11:36:22.021Z,2.97
2023-05-06T11:38:52.551Z,3.00
2023-05-06T11:41:22.172Z,3.55
2023-05-06T11:43:51.617Z,2.58
2023-05-06T11:46:20.927Z,3.70
2023-05-06T11:48:48.871Z,3.53
2023-05-06T11:51:21.599Z,4.15
2023-05-06T11:53:49.020Z,4.60
2023-05-06T11:56:16.361Z,4.32
2023-05-06T11:58:44.249Z,4.95
2023-05-06T12:01:11.444Z,4.65
2023-05-06T12:03:39.186Z,4.20
2023-05-06T12:06:06.760Z,5.38
2023-05-06T12:08:37.394Z,4.50
2023-05-06T12:11:09.224Z,4.88
2023-05-06T12:13:37.971Z,4.40
2023-05-06T12:16:07.862Z,4.22
2023-05-06T12:18:36.037Z,3.78
2023-05-06T12:21:04.358Z,4.22
2023-05-06T12:23:32.058Z,4.22
2023-05-06T12:26:05.465Z,4.18
2023-05-06T12:28:36.045Z,4.80
2023-05-06T12:31:24.349Z,4.50
2023-05-06T12:33:52.405Z,4.65
2023-05-06T12:36:20.605Z,5.25
2023-05-06T12:38:58.702Z,5.35
2023-05-06T12:41:46.565Z,5.93
2023-05-06T12:44:40.240Z,6.50
2023-05-06T12:47:29.255Z,5.57
2023-05-06T12:49:59.322Z,6.00
2023-05-06T12:52:30.175Z,7.20
2023-05-06T12:55:01.045Z,6.57
2023-05-06T12:57:28.417Z,6.88
2023-05-06T12:59:56.509Z,7.88
2023-05-06T13:02:24.242Z,7.40
2023-05-06T13:04:51.901Z,8.68
2023-05-06T13:07:19.384Z,7.43
2023-05-06T13:09:46.691Z,7.70
2023-05-06T13:12:14.010Z,7.13
2023-05-06T13:14:41.269Z,7.70
2023-05-06T13:17:09.066Z,6.80
2023-05-06T13:19:36.630Z,7.18
2023-05-06T13:22:03.951Z,6.55
2023-05-06T13:24:32.420Z,6.57
2023-05-06T13:27:01.444Z,7.30
2023-05-06T13:29:29.902Z,7.43
2023-05-06T13:31:57.763Z,6.85
2023-05-06T13:34:26.073Z,6.97
2023-05-06T13:36:54.870Z,7.15
2023-05-06T13:39:22.864Z,6.60
2023-05-06T13:41:50.708Z,6.72
2023-05-06T13:44:21.869Z,6.88
2023-05-06T13:46:49.519Z,6.82
2023-05-06T13:49:18.156Z,6.90
2023-05-06T13:51:45.711Z,7.15
2023-05-06T13:54:12.989Z,6.88
2023-05-06T13:56:40.304Z,7.13
2023-05-06T13:59:08.290Z,7.32
2023-05-06T14:01:36.398Z,6.88
2023-05-06T14:04:03.890Z,6.28
2023-05-06T14:06:31.592Z,6.22
2023-05-06T14:08:59.045Z,6.65
2023-05-06T14:11:26.418Z,6.93
2023-05-06T14:13:57.219Z,7.25
2023-05-06T14:16:24.765Z,7.15
2023-05-06T14:18:52.033Z,6.78
2023-05-06T14:21:19.310Z,6.82
2023-05-06T14:23:46.639Z,6.38
2023-05-06T14:26:14.314Z,6.35
2023-05-06T14:28:41.741Z,6.47
2023-05-06T14:31:09.099Z,5.78
2023-05-06T14:33:39.076Z,6.65
2023-05-06T14:36:07.116Z,7.03
2023-05-06T14:38:34.571Z,7.15
2023-05-06T14:41:02.153Z,7.35
2023-05-06T14:43:29.464Z,6.57
2023-05-06T14:45:56.843Z,6.68
2023-05-06T14:48:25.469Z,7.22
2023-05-06T14:50:53.204Z,7.32
2023-05-06T14:53:20.499Z,7.82
2023-05-06T14:55:49.058Z,7.40
2023-05-06T14:58:16.378Z,7.10
2023-05-06T15:00:44.953Z,7.45
2023-05-06T15:03:12.300Z,6.80
2023-05-06T15:05:39.802Z,7.93
2023-05-06T15:08:07.406Z,7.70
2023-05-06T15:10:34.762Z,6.88
2023-05-06T15:13:02.294Z,6.78
2023-05-06T15:15:29.648Z,8.05
2023-05-06T15:17:56.939Z,9.23
2023-05-06T15:20:24.741Z,11.35
2023-05-06T15:22:52.054Z,12.75
2023-05-06T15:25:30.921Z,15.52
2023-05-06T15:28:02.119Z,16.25
2023-05-06T15:30:29.546Z,18.02
2023-05-06T15:32:57.056Z,18.73
2023-05-06T15:35:24.386Z,18.30
2023-05-06T15:37:58.776Z,18.95
2023-05-06T15:40:27.111Z,18.73
2023-05-06T15:42:54.560Z,20.17
2023-05-06T15:45:22.704Z,18.90
2023-05-06T15:47:49.993Z,17.70
2023-05-06T15:50:31.811Z,18.65
2023-05-06T15:53:01.612Z,18.13
2023-05-06T15:55:29.298Z,15.63
2023-05-06T15:57:59.137Z,17.13
2023-05-06T16:00:28.114Z,16.33
2023-05-06T16:02:55.832Z,14.90
2023-05-06T16:05:23.201Z,15.05
2023-05-06T16:07:50.455Z,14.50
2023-05-06T16:10:17.899Z,15.15
2023-05-06T16:12:45.332Z,14.50
2023-05-06T16:15:12.648Z,14.35
2023-05-06T16:17:40.781Z,14.70
2023-05-06T16:20:10.581Z,14.40
2023-05-06T16:22:41.407Z,14.48
2023-05-06T16:25:09.221Z,14.70
2023-05-06T16:27:36.648Z,14.70
2023-05-06T16:30:04.448Z,15.38
2023-05-06T16:32:31.677Z,15.15
2023-05-06T16:34:59.516Z,14.32
2023-05-06T16:37:26.776Z,13.88
2023-05-06T16:39:54.057Z,12.85
2023-05-06T16:42:21.518Z,11.70
2023-05-06T16:44:48.788Z,10.52
2023-05-06T16:47:23.536Z,10.48
2023-05-06T16:49:51.146Z,10.35
2023-05-06T16:52:19.315Z,10.02
2023-05-06T16:54:46.656Z,9.73
2023-05-06T16:57:14.056Z,10.27
2023-05-06T16:59:41.329Z,9.95
2023-05-06T17:02:08.642Z,9.85
2023-05-06T17:04:36.790Z,9.45
2023-05-06T17:07:04.810Z,9.05
2023-05-06T17:09:32.249Z,9.50
2023-05-06T17:11:59.829Z,8.98
2023-05-06T17:14:28.077Z,8.80
2023-05-06T17:16:56.339Z,9.43
2023-05-06T17:19:23.897Z,9.50
2023-05-06T17:21:51.129Z,9.73
2023-05-06T17:24:18.407Z,10.15
2023-05-06T17:26:45.959Z,11.05
2023-05-06T17:29:13.424Z,11.32
2023-05-06T17:31:40.687Z,11.48
2023-05-06T17:34:07.990Z,11.68
2023-05-06T17:36:35.414Z,12.38
2023-05-06T17:39:07.829Z,12.80
2023-05-06T17:41:35.428Z,12.55
2023-05-06T17:44:03.021Z,12.98
2023-05-06T17:46:31.997Z,12.57
2023-05-06T17:48:59.503Z,13.75
2023-05-06T17:51:26.989Z,14.48
2023-05-06T17:53:54.269Z,13.07
2023-05-06T17:56:21.700Z,13.90
2023-05-06T17:58:48.906Z,12.93
2023-05-06T18:01:16.149Z,14.02
2023-05-06T18:03:44.414Z,12.02
2023-05-06T18:06:12.657Z,13.07
2023-05-06T18:08:39.999Z,12.30
2023-05-06T18:11:07.238Z,12.80
2023-05-06T18:13:36.702Z,11.32
2023-05-06T18:16:05.060Z,12.13
2023-05-06T18:18:32.532Z,10.95
2023-05-06T18:20:59.872Z,11.95
2023-05-06T18:23:27.083Z,12.70
2023-05-06T18:25:54.342Z,12.23
2023-05-06T18:28:21.655Z,11.75
2023-05-06T18:30:49.027Z,12.10
2023-05-06T18:33:16.465Z,12.05
2023-05-06T18:35:43.857Z,11.88
2023-05-06T18:38:11.761Z,11.80
2023-05-06T18:40:40.474Z,11.25
2023-05-06T18:43:08.477Z,11.77
2023-05-06T18:45:36.128Z,11.90
2023-05-06T18:48:04.409Z,12.60
2023-05-06T18:50:31.927Z,12.15
2023-05-06T18:52:59.279Z,11.98
2023-05-06T18:55:26.767Z,12.07
2023-05-06T18:57:54.150Z,11.80
2023-05-06T19:00:22.586Z,12.20
2023-05-06T19:02:49.900Z,11.00
2023-05-06T19:05:17.715Z,13.07
2023-05-06T19:07:44.901Z,12.57
2023-05-06T19:10:14.105Z,12.38
2023-05-06T19:12:41.799Z,11.80
2023-05-06T19:15:12.345Z,11.77
2023-05-06T19:17:40.315Z,11.45
2023-05-06T19:20:09.023Z,12.43
2023-05-06T19:22:36.508Z,12.88
2023-05-06T19:25:04.205Z,12.27
2023-05-06T19:27:31.394Z,12.13
2023-05-06T19:29:58.845Z,10.35
2023-05-06T19:32:26.329Z,10.35
2023-05-06T19:34:53.676Z,9.35
2023-05-06T19:37:20.921Z,9.02
2023-05-06T19:39:49.610Z,9.50
2023-05-06T19:42:16.856Z,9.18
2023-05-06T19:44:44.272Z,9.18
2023-05-06T19:47:12.763Z,8.73
2023-05-06T19:49:40.290Z,8.98
2023-05-06T19:52:07.682Z,8.73
2023-05-06T19:54:35.048Z,9.75
2023-05-06T19:57:02.564Z,9.30
2023-05-06T19:59:29.835Z,10.93
2023-05-06T20:02:00.754Z,10.27
2023-05-06T20:04:28.718Z,10.15
2023-05-06T20:06:55.968Z,10.05
2023-05-06T20:09:23.284Z,10.20
2023-05-06T20:11:50.657Z,10.38
2023-05-06T20:14:17.895Z,11.40
2023-05-06T20:16:45.334Z,10.48
2023-05-06T20:19:13.048Z,10.02
2023-05-06T20:21:40.434Z,9.75
2023-05-06T20:24:07.878Z,10.55
2023-05-06T20:26:35.214Z,10.57
2023-05-06T20:29:02.380Z,9.35
2023-05-06T20:31:29.715Z,10.48
2023-05-06T20:33:57.068Z,9.55
2023-05-06T20:36:24.401Z,9.70
2023-05-06T20:38:52.157Z,9.40
2023-05-06T20:41:19.495Z,9.05
2023-05-06T20:43:47.160Z,9.93
2023-05-06T20:46:14.524Z,9.13
2023-05-06T20:48:42.167Z,10.63
2023-05-06T20:51:09.385Z,9.75
2023-05-06T20:53:37.322Z,9.60
2023-05-06T20:56:07.146Z,9.95
2023-05-06T20:58:34.504Z,10.93
2023-05-06T21:01:03.188Z,9.93
2023-05-06T21:03:31.125Z,10.77
2023-05-06T21:05:58.400Z,10.30
2023-05-06T21:08:25.961Z,10.60
2023-05-06T21:10:53.152Z,10.60
2023-05-06T21:13:20.869Z,10.23
2023-05-06T21:15:48.208Z,10.25
2023-05-06T21:18:17.089Z,12.85
2023-05-06T21:20:44.503Z,11.55
2023-05-06T21:23:11.914Z,11.85
2023-05-06T21:25:39.208Z,12.20
2023-05-06T21:28:06.720Z,12.05
2023-05-06T21:30:36.277Z,10.35
2023-05-06T21:33:06.489Z,11.00
2023-05-06T21:35:34.614Z,10.75
2023-05-06T21:38:01.942Z,11.43
2023-05-06T21:40:29.355Z,12.07
2023-05-06T21:42:57.070Z,11.85
2023-05-06T21:45:24.367Z,11.55
2023-05-06T21:47:51.726Z,10.77
2023-05-06T21:50:19.060Z,12.25
2023-05-06T21:52:46.268Z,11.63
2023-05-06T21:55:13.729Z,11.70
2023-05-06T21:57:41.143Z,12.63
2023-05-06T22:00:12.101Z,11.93
2023-05-06T22:02:40.786Z,13.10
2023-05-06T22:05:09.342Z,12.07
2023-05-06T22:07:36.819Z,13.27
2023-05-06T22:10:06.219Z,12.43
2023-05-06T22:12:35.322Z,11.57
2023-05-06T22:15:03.032Z,12.30
2023-05-06T22:17:32.799Z,11.90
2023-05-06T22:20:02.823Z,12.98
2023-05-06T22:22:30.716Z,12.50
2023-05-06T22:25:01.077Z,12.52
2023-05-06T22:27:28.361Z,13.00
2023-05-06T22:29:55.578Z,12.70
2023-05-06T22:32:22.911Z,12.90
2023-05-06T22:34:50.258Z,12.43
2023-05-06T22:37:17.608Z,11.07
2023-05-06T22:39:44.948Z,11.75
2023-05-06T22:42:12.255Z,11.63
2023-05-06T22:44:39.486Z,11.13
2023-05-06T22:47:06.894Z,11.32
2023-05-06T22:49:34.134Z,10.88
2023-05-06T22:52:01.386Z,11.95
2023-05-06T22:54:28.663Z,12.45
2023-05-06T22:56:56.043Z,10.90
2023-05-06T22:59:23.322Z,10.63
2023-05-06T23:01:50.553Z,11.75
2023-05-06T23:04:17.848Z,12.15
2023-05-06T23:06:45.045Z,13.68
2023-05-06T23:09:13.551Z,13.25
2023-05-06T23:11:40.988Z,12.80
2023-05-06T23:14:08.282Z,12.60
2023-05-06T23:16:35.608Z,11.75
2023-05-06T23:19:02.875Z,12.63
2023-05-06T23:21:30.149Z,12.18
2023-05-06T23:23:57.354Z,12.27
2023-05-06T23:26:24.742Z,12.13
2023-05-06T23:28:52.346Z,12.15
2023-05-06T23:31:19.662Z,13.43
2023-05-06T23:33:46.925Z,12.70
2023-05-06T23:36:14.180Z,12.38
2023-05-06T23:38:41.323Z,11.43
2023-05-06T23:41:08.594Z,12.25
2023-05-06T23:43:35.830Z,12.35
2023-05-06T23:46:03.055Z,11.98
2023-05-06T23:48:30.471Z,12.60
2023-05-06T23:50:57.775Z,12.43
2023-05-06T23:53:25.018Z,11.65
2023-05-06T23:55:52.230Z,11.73
2023-05-06T23:58:19.456Z,12.50
